createdAt,value
2022-10-13T00:03:35.351Z,64.37
2022-10-13T00:09:07.642Z,64.33
2022-10-13T00:14:38.934Z,64.05
2022-10-13T00:20:11.162Z,64.77
2022-10-13T00:25:44.357Z,64.34
2022-10-13T00:31:22.811Z,65.20
2022-10-13T00:36:53.753Z,63.93
2022-10-13T00:42:26.876Z,63.84
2022-10-13T00:47:59.506Z,64.68
2022-10-13T00:53:33.570Z,64.55
2022-10-13T00:59:09.097Z,64.56
2022-10-13T01:04:43.808Z,64.74
2022-10-13T01:10:24.959Z,64.79
2022-10-13T01:16:13.825Z,64.27
2022-10-13T01:22:02.857Z,64.07
2022-10-13T01:27:37.517Z,64.11
2022-10-13T01:33:20.672Z,64.48
2022-10-13T01:39:06.710Z,64.36
2022-10-13T01:44:41.645Z,64.61
2022-10-13T01:50:14.458Z,64.45
2022-10-13T01:55:57.606Z,64.65
2022-10-13T02:01:28.480Z,64.57
2022-10-13T02:07:08.905Z,64.37
2022-10-13T02:12:49.385Z,64.42
2022-10-13T02:18:24.120Z,64.16
2022-10-13T02:23:55.360Z,64.34
2022-10-13T02:29:26.517Z,64.47
2022-10-13T02:34:57.805Z,65.26
2022-10-13T02:40:29.181Z,64.29
2022-10-13T02:46:00.448Z,64.68
2022-10-13T02:51:36.200Z,64.11
2022-10-13T02:57:10.260Z,64.42
2022-10-13T03:02:41.249Z,64.08
2022-10-13T03:08:12.465Z,64.33
2022-10-13T03:13:44.640Z,64.43
2022-10-13T03:19:15.723Z,64.90
2022-10-13T03:24:46.672Z,64.73
2022-10-13T03:30:17.616Z,64.61
2022-10-13T03:35:48.767Z,64.09
2022-10-13T03:41:19.988Z,64.43
2022-10-13T03:46:54.111Z,63.93
2022-10-13T03:52:25.191Z,64.48
2022-10-13T03:57:56.411Z,64.07
2022-10-13T04:03:27.982Z,64.68
2022-10-13T04:08:59.488Z,64.45
2022-10-13T04:14:30.424Z,63.95
2022-10-13T04:20:09.620Z,64.60
2022-10-13T04:25:41.228Z,63.76
2022-10-13T04:31:13.928Z,63.52
2022-10-13T04:36:45.321Z,63.87
2022-10-13T04:42:16.673Z,64.36
2022-10-13T04:47:47.678Z,64.12
2022-10-13T04:53:20.754Z,63.77
2022-10-13T04:58:51.707Z,64.39
2022-10-13T05:04:23.170Z,64.03
2022-10-13T05:09:54.625Z,64.26
2022-10-13T05:15:25.523Z,63.84
2022-10-13T05:20:56.728Z,64.19
2022-10-13T05:26:29.403Z,63.95
2022-10-13T05:32:00.961Z,64.36
2022-10-13T05:37:32.129Z,64.34
2022-10-13T05:43:02.930Z,63.96
2022-10-13T05:48:34.782Z,64.43
2022-10-13T05:54:17.836Z,64.10
2022-10-13T06:00:16.255Z,64.39
2022-10-13T06:05:47.844Z,64.14
2022-10-13T06:11:19.122Z,64.09
2022-10-13T06:16:50.363Z,63.56
2022-10-13T06:22:22.575Z,64.00
2022-10-13T06:27:53.923Z,63.47
2022-10-13T06:33:25.411Z,63.81
2022-10-13T06:38:56.591Z,63.56
2022-10-13T06:44:28.151Z,64.05
2022-10-13T06:50:06.032Z,64.06
2022-10-13T06:55:37.090Z,63.29
2022-10-13T07:01:09.486Z,64.20
2022-10-13T07:06:40.479Z,63.96
2022-10-13T07:12:13.903Z,63.17
2022-10-13T07:17:45.113Z,63.30
2022-10-13T07:23:16.472Z,63.72
2022-10-13T07:28:47.388Z,63.75
2022-10-13T07:34:18.693Z,64.04
2022-10-13T07:39:49.558Z,64.06
2022-10-13T07:45:20.979Z,63.63
2022-10-13T07:50:52.614Z,63.79
2022-10-13T07:56:23.816Z,64.18
2022-10-13T08:01:55.118Z,63.92
2022-10-13T08:07:26.453Z,63.69
2022-10-13T08:12:57.614Z,63.89
2022-10-13T08:18:29.949Z,64.36
2022-10-13T08:24:00.741Z,63.84
2022-10-13T08:29:31.929Z,63.97
2022-10-13T08:35:04.382Z,64.25
2022-10-13T08:40:36.250Z,64.01
2022-10-13T08:46:09.310Z,64.21
2022-10-13T08:51:40.653Z,64.19
2022-10-13T08:57:12.581Z,63.85
2022-10-13T09:02:45.405Z,63.99
2022-10-13T09:08:20.339Z,64.29
2022-10-13T09:13:55.409Z,63.78
2022-10-13T09:19:34.378Z,63.66
2022-10-13T09:25:11.408Z,64.15
2022-10-13T09:30:44.293Z,63.75
2022-10-13T09:36:16.446Z,64.06
2022-10-13T09:41:51.351Z,63.75
2022-10-13T09:47:22.507Z,63.83
2022-10-13T09:53:30.213Z,63.82
2022-10-13T09:59:10.720Z,63.64
2022-10-13T10:04:43.510Z,64.16
2022-10-13T10:10:36.138Z,64.20
2022-10-13T10:16:30.442Z,63.97
2022-10-13T10:22:04.332Z,64.09
2022-10-13T10:27:56.679Z,64.22
2022-10-13T10:33:44.388Z,64.61
2022-10-13T10:39:18.775Z,64.57
2022-10-13T10:44:51.740Z,64.80
2022-10-13T10:50:23.983Z,64.90
2022-10-13T10:56:35.710Z,65.05
2022-10-13T11:02:07.530Z,65.21
2022-10-13T11:07:38.713Z,65.25
2022-10-13T11:13:17.681Z,65.29
2022-10-13T11:19:28.986Z,65.34
2022-10-13T11:25:42.038Z,65.30
2022-10-13T11:31:13.100Z,65.43
2022-10-13T11:36:50.364Z,65.14
2022-10-13T11:42:48.388Z,65.32
2022-10-13T11:48:41.233Z,65.44
2022-10-13T11:54:30.438Z,65.36
2022-10-13T12:00:01.550Z,65.58
2022-10-13T12:05:43.906Z,65.73
2022-10-13T12:11:30.630Z,65.52
2022-10-13T12:17:02.645Z,65.50
2022-10-13T12:22:36.839Z,65.56
2022-10-13T12:28:19.353Z,65.40
2022-10-13T12:34:01.958Z,65.68
2022-10-13T12:39:34.115Z,65.74
2022-10-13T12:45:05.694Z,65.56
2022-10-13T12:50:38.036Z,65.43
2022-10-13T12:56:19.464Z,65.46
2022-10-13T13:02:04.565Z,65.30
2022-10-13T13:07:37.650Z,65.35
2022-10-13T13:13:15.452Z,65.37
2022-10-13T13:18:47.796Z,65.48
2022-10-13T13:24:28.865Z,65.35
2022-10-13T13:30:17.027Z,65.44
2022-10-13T13:35:49.286Z,65.41
2022-10-13T13:41:21.395Z,65.44
2022-10-13T13:46:52.235Z,65.48
2022-10-13T13:52:24.458Z,65.57
2022-10-13T13:57:55.487Z,65.39
2022-10-13T14:03:26.672Z,65.46
2022-10-13T14:08:57.665Z,65.57
2022-10-13T14:14:31.837Z,65.50
2022-10-13T14:20:02.856Z,65.72
2022-10-13T14:25:34.364Z,65.82
2022-10-13T14:31:06.659Z,65.79
2022-10-13T14:36:40.012Z,65.74
2022-10-13T14:42:11.658Z,65.99
2022-10-13T14:47:43.013Z,66.16
2022-10-13T14:53:17.766Z,66.09
2022-10-13T14:58:50.522Z,66.34
2022-10-13T15:04:21.943Z,66.16
2022-10-13T15:10:04.333Z,66.14
2022-10-13T15:15:37.344Z,66.39
2022-10-13T15:21:08.463Z,66.25
2022-10-13T15:26:39.697Z,65.99
2022-10-13T15:32:18.737Z,65.90
2022-10-13T15:37:59.107Z,65.75
2022-10-13T15:43:30.007Z,65.65
2022-10-13T15:49:00.976Z,65.77
2022-10-13T15:54:31.979Z,65.70
2022-10-13T16:00:05.419Z,65.68
2022-10-13T16:05:44.416Z,65.85
2022-10-13T16:11:17.281Z,65.89
2022-10-13T16:16:48.320Z,66.05
2022-10-13T16:22:19.703Z,65.89
2022-10-13T16:27:51.025Z,66.08
2022-10-13T16:33:21.976Z,65.80
2022-10-13T16:38:55.139Z,66.13
2022-10-13T16:44:26.293Z,66.16
2022-10-13T16:49:57.141Z,66.22
2022-10-13T16:55:28.074Z,66.19
2022-10-13T17:01:08.941Z,66.22
2022-10-13T17:06:41.241Z,66.18
2022-10-13T17:12:12.226Z,66.39
2022-10-13T17:17:43.623Z,66.36
2022-10-13T17:23:17.453Z,66.25
2022-10-13T17:28:48.501Z,66.48
2022-10-13T17:34:19.875Z,66.32
2022-10-13T17:39:52.580Z,66.39
2022-10-13T17:45:25.248Z,66.34
2022-10-13T17:50:56.223Z,66.30
2022-10-13T17:56:27.979Z,66.50
2022-10-13T18:01:59.173Z,66.52
2022-10-13T18:07:30.314Z,66.54
2022-10-13T18:13:01.302Z,66.03
2022-10-13T18:18:33.028Z,66.47
2022-10-13T18:24:04.549Z,66.42
2022-10-13T18:29:35.936Z,66.43
2022-10-13T18:35:07.954Z,66.50
2022-10-13T18:40:39.200Z,66.38
2022-10-13T18:46:10.800Z,66.46
2022-10-13T18:51:41.774Z,66.22
2022-10-13T18:57:13.130Z,66.29
2022-10-13T19:02:44.359Z,66.50
2022-10-13T19:08:15.374Z,66.45
2022-10-13T19:13:47.638Z,66.41
2022-10-13T19:19:19.116Z,66.58
2022-10-13T19:24:50.951Z,66.46
2022-10-13T19:30:26.563Z,66.87
2022-10-13T19:35:57.611Z,66.50
2022-10-13T19:41:29.920Z,66.57
2022-10-13T19:47:00.719Z,66.67
2022-10-13T19:52:31.634Z,66.61
2022-10-13T19:58:02.923Z,66.38
2022-10-13T20:03:34.624Z,66.54
2022-10-13T20:09:06.332Z,66.50
2022-10-13T20:14:37.568Z,66.41
2022-10-13T20:20:09.011Z,66.52
2022-10-13T20:25:40.092Z,66.67
2022-10-13T20:31:12.978Z,66.43
2022-10-13T20:36:44.509Z,66.86
2022-10-13T20:42:15.542Z,66.60
2022-10-13T20:47:47.157Z,66.70
2022-10-13T20:53:18.294Z,66.50
2022-10-13T20:58:51.403Z,66.53
2022-10-13T21:04:22.445Z,66.61
2022-10-13T21:09:54.050Z,66.64
2022-10-13T21:15:25.736Z,66.65
2022-10-13T21:21:05.880Z,66.49
2022-10-13T21:26:38.433Z,66.57
2022-10-13T21:32:09.910Z,66.39
2022-10-13T21:37:41.096Z,66.65
2022-10-13T21:43:12.094Z,66.44
2022-10-13T21:48:44.280Z,66.54
2022-10-13T21:54:15.618Z,66.66
2022-10-13T21:59:47.270Z,66.67
2022-10-13T22:05:18.389Z,66.71
2022-10-13T22:10:57.278Z,66.44
2022-10-13T22:16:32.275Z,66.49
2022-10-13T22:22:03.639Z,66.79
2022-10-13T22:27:34.571Z,66.47
2022-10-13T22:33:05.886Z,66.61
2022-10-13T22:38:37.185Z,66.93
2022-10-13T22:44:10.211Z,66.68
2022-10-13T22:49:41.415Z,66.96
2022-10-13T22:55:13.887Z,66.70
2022-10-13T23:00:44.946Z,66.76
2022-10-13T23:06:17.401Z,66.99
2022-10-13T23:11:48.371Z,66.93
2022-10-13T23:17:24.369Z,66.93
2022-10-13T23:22:55.566Z,66.66
2022-10-13T23:28:26.848Z,66.68
2022-10-13T23:34:00.107Z,67.07
2022-10-13T23:39:31.590Z,67.13
2022-10-13T23:45:02.512Z,66.95
2022-10-13T23:50:34.235Z,67.21
2022-10-13T23:56:07.144Z,67.13
